Time;durP1;ratioP1;P1;durP2;ratioP2;P2;SDS_P1;SDS_P2;PMS_P1;PMS_P2;Temp;Humidity;BMP_temperature;BMP_pressure;BME280_temperature;BME280_humidity;BME280_pressure;Samples;Min_cycle;Max_cycle;Signal;HPM_P1;HPM_P2
2021/03/26 00:00:09;;;;;;;62.97;28.57;;;7.50;99.90;;;;;;5094764;28;20289;-80
2021/03/26 00:02:36;;;;;;;56.53;27.87;;;7.50;99.90;;;;;;5090890;28;20191;-78
2021/03/26 00:05:04;;;;;;;57.17;25.97;;;7.40;99.90;;;;;;5092999;28;20204;-78
2021/03/26 00:07:32;;;;;;;55.30;27.07;;;7.40;99.90;;;;;;5084733;28;20637;-79
2021/03/26 00:09:59;;;;;;;57.80;27.77;;;7.30;99.90;;;;;;5090596;28;20195;-78
2021/03/26 00:12:26;;;;;;;55.70;27.77;;;7.30;99.90;;;;;;5092239;28;20208;-79
2021/03/26 00:14:52;;;;;;;56.10;27.10;;;7.40;99.90;;;;;;5088518;28;20222;-76
2021/03/26 00:17:18;;;;;;;57.33;27.27;;;7.50;99.90;;;;;;5084533;28;20205;-78
2021/03/26 00:19:45;;;;;;;54.63;27.03;;;7.50;99.90;;;;;;5091464;28;20201;-80
2021/03/26 00:22:11;;;;;;;59.57;27.63;;;7.50;99.90;;;;;;5090462;28;20588;-79
2021/03/26 00:24:38;;;;;;;53.43;26.77;;;7.50;99.90;;;;;;5092187;28;20288;-79
2021/03/26 00:27:06;;;;;;;60.87;26.53;;;7.50;99.90;;;;;;5092758;28;20662;-79
2021/03/26 00:29:32;;;;;;;55.60;25.93;;;7.50;99.90;;;;;;5084040;28;20203;-78
2021/03/26 00:31:58;;;;;;;55.97;24.93;;;7.50;99.90;;;;;;5085320;28;20251;-77
2021/03/26 00:34:25;;;;;;;57.83;27.63;;;7.40;99.90;;;;;;5093008;28;20355;-79
2021/03/26 00:36:52;;;;;;;55.60;27.27;;;7.50;99.90;;;;;;5077377;28;20277;-79
2021/03/26 00:39:18;;;;;;;60.10;26.13;;;7.50;99.90;;;;;;5083031;28;20197;-78
2021/03/26 00:41:45;;;;;;;56.60;27.10;;;7.50;99.90;;;;;;5091161;28;20201;-78
2021/03/26 00:44:12;;;;;;;58.27;26.17;;;7.50;99.90;;;;;;5082699;28;20287;-79
2021/03/26 00:46:39;;;;;;;56.80;25.47;;;7.50;99.90;;;;;;5087147;28;20708;-78
2021/03/26 00:49:07;;;;;;;58.77;25.13;;;7.50;99.90;;;;;;5093081;28;20299;-78
2021/03/26 00:51:33;;;;;;;57.10;26.83;;;7.50;99.90;;;;;;5095176;28;20644;-80
2021/03/26 00:54:00;;;;;;;58.90;27.83;;;7.60;99.90;;;;;;5089497;28;20298;-78
2021/03/26 00:56:26;;;;;;;54.00;25.47;;;7.70;99.90;;;;;;5090680;28;20257;-76
2021/03/26 00:58:53;;;;;;;47.40;25.30;;;7.70;99.90;;;;;;5099470;28;20290;-78
2021/03/26 01:01:20;;;;;;;48.23;24.13;;;7.70;99.90;;;;;;5094676;28;20284;-79
2021/03/26 01:03:46;;;;;;;46.63;23.90;;;7.70;99.90;;;;;;5093272;28;20291;-76
2021/03/26 01:06:13;;;;;;;53.73;25.20;;;7.90;99.90;;;;;;5102455;28;20206;-78
2021/03/26 01:08:40;;;;;;;50.47;24.57;;;7.90;99.90;;;;;;5093424;28;20282;-79
2021/03/26 01:11:10;;;;;;;54.70;23.80;;;8.00;99.90;;;;;;5095127;28;20274;-80
2021/03/26 01:13:37;;;;;;;52.20;25.23;;;8.00;99.90;;;;;;5079239;28;20254;-79
2021/03/26 01:16:06;;;;;;;45.50;24.73;;;8.10;99.90;;;;;;5078453;28;20330;-78
2021/03/26 01:18:37;;;;;;;44.30;23.57;;;8.20;99.90;;;;;;5092255;28;20675;-78
2021/03/26 01:21:04;;;;;;;49.53;23.70;;;8.10;99.90;;;;;;5092010;28;20208;-79
2021/03/26 01:23:31;;;;;;;46.03;22.47;;;8.20;99.90;;;;;;5094167;28;20195;-78
2021/03/26 01:25:58;;;;;;;45.87;22.77;;;8.20;99.90;;;;;;5109762;28;20196;-78
2021/03/26 01:28:27;;;;;;;41.10;21.03;;;8.20;99.90;;;;;;5098008;28;20658;-78
2021/03/26 01:30:54;;;;;;;42.43;21.43;;;8.20;99.90;;;;;;5096768;28;20278;-78
2021/03/26 01:33:23;;;;;;;38.13;21.00;;;8.10;99.90;;;;;;5084305;28;20225;-78
2021/03/26 01:35:50;;;;;;;43.37;22.63;;;8.20;99.90;;;;;;5087353;28;20649;-78
2021/03/26 01:38:17;;;;;;;39.83;21.13;;;8.20;99.90;;;;;;5094406;28;20202;-79
2021/03/26 01:40:45;;;;;;;40.43;22.13;;;8.30;99.90;;;;;;5100142;28;20256;-78
2021/03/26 01:43:14;;;;;;;40.97;21.73;;;8.10;99.90;;;;;;5096198;28;20552;-79
2021/03/26 01:45:42;;;;;;;40.83;20.67;;;8.10;99.90;;;;;;5094783;28;20658;-79
2021/03/26 01:48:10;;;;;;;40.20;22.17;;;8.10;99.90;;;;;;5096541;28;20290;-79
2021/03/26 01:50:39;;;;;;;43.00;21.83;;;8.00;99.90;;;;;;5095432;28;20200;-77
2021/03/26 01:53:07;;;;;;;40.27;20.23;;;8.00;99.90;;;;;;5083270;28;20641;-79
2021/03/26 01:55:38;;;;;;;41.07;20.73;;;8.00;99.90;;;;;;5092395;28;20217;-80
2021/03/26 01:58:05;;;;;;;42.30;22.07;;;8.00;99.90;;;;;;5088869;28;20290;-78
2021/03/26 02:00:35;;;;;;;38.93;20.40;;;8.00;99.90;;;;;;5090921;28;20669;-78
2021/03/26 02:03:05;;;;;;;39.67;20.90;;;7.90;99.90;;;;;;5076865;28;20211;-77
2021/03/26 02:05:32;;;;;;;41.83;19.97;;;7.70;99.90;;;;;;5093795;28;20678;-79
2021/03/26 02:07:59;;;;;;;42.00;20.80;;;7.70;99.90;;;;;;5092908;28;20220;-78
2021/03/26 02:10:26;;;;;;;42.70;21.03;;;7.60;99.90;;;;;;5084316;28;20227;-77
2021/03/26 02:12:58;;;;;;;40.67;20.60;;;7.60;99.90;;;;;;5091382;28;20192;-77
2021/03/26 02:15:44;;;;;;;43.00;20.60;;;7.60;99.90;;;;;;5114364;28;20204;-76
2021/03/26 02:18:17;;;;;;;40.73;19.30;;;7.50;99.90;;;;;;5108060;28;20655;-78
2021/03/26 02:20:48;;;;;;;37.27;19.43;;;7.40;99.90;;;;;;5114117;28;20194;-77
2021/03/26 02:23:18;;;;;;;43.67;21.10;;;7.50;99.90;;;;;;5107806;28;20191;-77
2021/03/26 02:25:45;;;;;;;44.23;20.90;;;7.50;99.90;;;;;;5109160;28;20207;-79
2021/03/26 02:28:12;;;;;;;42.30;20.57;;;7.40;99.90;;;;;;5120567;28;20220;-77
2021/03/26 02:30:43;;;;;;;47.20;21.20;;;7.40;99.90;;;;;;5127293;28;20684;-79
2021/03/26 02:33:10;;;;;;;41.83;20.70;;;7.40;99.90;;;;;;5106597;28;20203;-78
2021/03/26 02:35:38;;;;;;;42.17;20.13;;;7.30;99.90;;;;;;5096017;28;20300;-78
2021/03/26 02:38:11;;;;;;;39.10;18.90;;;7.30;99.90;;;;;;5114016;28;20569;-77
2021/03/26 02:40:42;;;;;;;37.20;18.70;;;7.20;99.90;;;;;;5111847;28;20796;-78
2021/03/26 02:43:22;;;;;;;45.53;19.93;;;7.10;99.90;;;;;;5076186;28;20276;-80
2021/03/26 02:45:59;;;;;;;39.67;18.97;;;7.30;99.90;;;;;;5089187;28;20192;-79
2021/03/26 02:48:36;;;;;;;37.10;18.53;;;7.20;99.90;;;;;;5095130;28;20697;-79
2021/03/26 02:51:12;;;;;;;36.90;18.27;;;7.30;99.90;;;;;;5095433;28;20675;-77
2021/03/26 02:53:48;;;;;;;37.37;18.73;;;7.30;99.90;;;;;;5096328;28;20218;-78
2021/03/26 02:56:20;;;;;;;38.00;19.50;;;7.20;99.90;;;;;;5075328;28;20668;-79
2021/03/26 02:58:51;;;;;;;36.60;18.50;;;7.20;99.90;;;;;;5077628;28;20287;-78
2021/03/26 03:01:25;;;;;;;36.87;18.47;;;7.20;99.90;;;;;;5087051;28;20200;-77
2021/03/26 03:03:57;;;;;;;38.30;18.17;;;7.20;99.90;;;;;;5080839;28;20201;-75
2021/03/26 03:06:28;;;;;;;33.20;17.60;;;7.20;99.90;;;;;;5070346;28;20207;-79
2021/03/26 03:08:56;;;;;;;41.93;18.13;;;7.10;99.90;;;;;;5089101;28;20275;-78
2021/03/26 03:11:32;;;;;;;40.83;17.37;;;7.10;99.90;;;;;;5084880;28;20287;-76
2021/03/26 03:14:03;;;;;;;37.03;18.47;;;7.10;99.90;;;;;;5090439;28;20252;-80
2021/03/26 03:16:35;;;;;;;37.23;17.90;;;7.20;99.90;;;;;;5086944;28;20205;-78
2021/03/26 03:19:10;;;;;;;34.57;16.80;;;7.30;99.90;;;;;;5092882;28;20209;-78
2021/03/26 03:21:41;;;;;;;34.97;17.07;;;7.30;99.90;;;;;;5091279;28;20215;-78
2021/03/26 03:24:12;;;;;;;37.93;17.20;;;7.30;99.90;;;;;;5080821;28;20229;-77
2021/03/26 03:26:48;;;;;;;35.20;16.03;;;7.20;99.90;;;;;;5082724;28;20291;-78
2021/03/26 03:29:21;;;;;;;36.07;17.50;;;7.30;99.90;;;;;;5079838;28;20287;-78
2021/03/26 03:31:52;;;;;;;31.53;16.43;;;7.20;99.90;;;;;;5084184;28;20288;-77
2021/03/26 03:34:28;;;;;;;40.70;16.37;;;7.10;99.90;;;;;;5094347;28;20301;-79
2021/03/26 03:37:11;;;;;;;32.63;16.60;;;7.10;99.90;;;;;;5088473;28;20280;-78
2021/03/26 03:39:44;;;;;;;34.03;17.23;;;7.10;99.90;;;;;;5078998;28;20251;-77
2021/03/26 03:42:19;;;;;;;36.53;17.30;;;7.20;99.90;;;;;;5095668;28;20200;-77
2021/03/26 03:44:51;;;;;;;32.93;16.70;;;7.20;99.90;;;;;;5086686;28;20224;-78
2021/03/26 03:47:27;;;;;;;36.20;17.90;;;7.20;99.90;;;;;;5099399;28;20240;-79
2021/03/26 03:50:00;;;;;;;33.70;16.83;;;7.20;99.90;;;;;;5070926;28;20723;-77
2021/03/26 03:52:45;;;;;;;36.70;17.33;;;7.20;99.90;;;;;;5084199;28;20203;-78
2021/03/26 03:55:16;;;;;;;35.83;17.70;;;7.30;99.90;;;;;;5087617;28;20315;-78
2021/03/26 03:57:47;;;;;;;32.10;16.87;;;7.20;99.90;;;;;;5089323;28;20267;-79
2021/03/26 04:00:20;;;;;;;35.73;17.33;;;7.20;99.90;;;;;;5102358;28;20197;-77
2021/03/26 04:02:52;;;;;;;34.90;17.80;;;7.20;99.90;;;;;;5089942;28;20208;-79
2021/03/26 04:05:25;;;;;;;37.40;17.57;;;7.20;99.90;;;;;;5095323;28;20286;-76
2021/03/26 04:07:58;;;;;;;34.83;17.50;;;7.30;99.90;;;;;;5097538;28;20650;-79
2021/03/26 04:10:26;;;;;;;38.43;17.53;;;7.20;99.90;;;;;;5093183;28;20291;-80
2021/03/26 04:12:58;;;;;;;35.93;18.30;;;7.10;99.90;;;;;;5096947;28;20231;-77
2021/03/26 04:15:30;;;;;;;36.90;16.73;;;7.10;99.90;;;;;;5090514;28;20303;-79
2021/03/26 04:18:02;;;;;;;39.77;17.83;;;7.10;99.90;;;;;;5093668;28;20582;-78
2021/03/26 04:20:38;;;;;;;36.83;18.40;;;7.20;99.90;;;;;;5087952;28;20207;-78
2021/03/26 04:23:09;;;;;;;34.40;18.13;;;7.10;99.90;;;;;;5080208;28;20684;-77
2021/03/26 04:25:38;;;;;;;36.33;18.27;;;7.10;99.90;;;;;;5086252;28;20702;-77
2021/03/26 04:28:10;;;;;;;38.50;19.13;;;7.00;99.90;;;;;;5096683;28;20200;-78
2021/03/26 04:30:39;;;;;;;38.07;18.80;;;7.10;99.90;;;;;;5079634;28;20284;-78
2021/03/26 04:33:06;;;;;;;37.07;18.63;;;7.10;99.90;;;;;;5093406;28;20204;-78
2021/03/26 04:35:32;;;;;;;43.60;19.43;;;7.10;99.90;;;;;;5089679;28;20609;-77
2021/03/26 04:38:07;;;;;;;40.93;18.77;;;7.10;99.90;;;;;;5084849;28;20215;-78
2021/03/26 04:40:36;;;;;;;38.07;18.30;;;7.10;99.90;;;;;;5092973;28;20196;-80
2021/03/26 04:43:15;;;;;;;39.67;19.53;;;7.10;99.90;;;;;;5084155;28;20289;-79
2021/03/26 04:45:47;;;;;;;36.67;17.60;;;7.10;99.90;;;;;;5086674;28;20275;-77
2021/03/26 04:48:20;;;;;;;34.63;18.40;;;7.10;99.90;;;;;;5079908;28;20281;-79
2021/03/26 04:50:56;;;;;;;43.93;19.57;;;7.10;99.90;;;;;;5095751;28;20224;-79
2021/03/26 04:53:27;;;;;;;41.10;19.10;;;7.00;99.90;;;;;;5092854;28;20239;-79
2021/03/26 04:55:56;;;;;;;41.40;18.57;;;7.00;99.90;;;;;;5086893;28;20208;-81
2021/03/26 04:58:27;;;;;;;42.70;19.90;;;6.80;99.90;;;;;;5102656;28;20252;-78
2021/03/26 05:00:59;;;;;;;40.97;18.97;;;6.80;99.90;;;;;;5096536;28;20208;-77
2021/03/26 05:03:30;;;;;;;39.07;18.27;;;6.80;99.90;;;;;;5093459;28;20269;-79
2021/03/26 05:06:00;;;;;;;43.77;19.97;;;6.70;99.90;;;;;;5086155;28;20217;-78
2021/03/26 05:08:27;;;;;;;41.80;18.97;;;6.80;99.90;;;;;;5090043;28;20204;-80
2021/03/26 05:10:57;;;;;;;53.27;19.37;;;6.90;99.90;;;;;;5086339;28;20232;-80
2021/03/26 05:13:30;;;;;;;46.67;19.57;;;6.80;99.90;;;;;;5078300;28;20200;-78
2021/03/26 05:16:01;;;;;;;36.57;18.00;;;6.70;99.90;;;;;;5096316;28;20307;-78
2021/03/26 05:18:32;;;;;;;42.37;18.23;;;6.80;99.90;;;;;;5087711;28;20338;-77
2021/03/26 05:21:05;;;;;;;43.15;21.92;;;6.80;99.90;;;;;;5091006;28;20561;-78
2021/03/26 05:23:37;;;;;;;37.57;18.47;;;6.80;99.90;;;;;;5080363;28;20219;-78
2021/03/26 05:26:04;;;;;;;40.53;18.57;;;6.80;99.90;;;;;;5089530;28;20291;-79
2021/03/26 05:28:34;;;;;;;42.70;19.13;;;6.90;99.90;;;;;;5088691;28;20203;-80
2021/03/26 05:31:07;;;;;;;38.70;18.60;;;7.00;99.90;;;;;;5090793;28;20292;-79
2021/03/26 05:33:38;;;;;;;41.77;18.33;;;6.80;99.90;;;;;;5089453;28;20222;-78
2021/03/26 05:36:11;;;;;;;40.77;18.77;;;6.90;99.90;;;;;;5078528;28;20226;-77
2021/03/26 05:38:43;;;;;;;40.07;18.00;;;6.90;99.90;;;;;;5091921;28;20211;-78
2021/03/26 05:41:35;;;;;;;38.03;18.90;;;6.90;99.90;;;;;;5096066;28;20276;-78
2021/03/26 05:44:43;;;;;;;41.53;18.03;;;6.90;99.90;;;;;;5099135;28;20303;-77
2021/03/26 05:47:21;;;;;;;38.13;18.93;;;6.80;99.90;;;;;;5058179;28;20220;-78
2021/03/26 05:50:02;;;;;;;42.83;18.20;;;6.90;99.90;;;;;;5097355;28;20200;-78
2021/03/26 05:52:51;;;;;;;41.33;17.80;;;7.00;99.90;;;;;;5094352;28;20230;-78
2021/03/26 05:55:29;;;;;;;39.17;17.57;;;7.00;99.90;;;;;;5090994;28;20256;-78
2021/03/26 05:58:09;;;;;;;36.00;17.40;;;7.00;99.90;;;;;;5097940;28;20198;-78
2021/03/26 06:00:54;;;;;;;35.53;17.07;;;7.00;99.90;;;;;;5104870;28;20208;-80
2021/03/26 06:03:36;;;;;;;39.63;17.67;;;7.10;99.90;;;;;;5101260;28;20661;-76
2021/03/26 06:06:38;;;;;;;36.10;17.13;;;7.10;99.90;;;;;;5094601;28;20219;-77
2021/03/26 06:09:25;;;;;;;37.87;18.07;;;7.20;99.90;;;;;;5097834;28;20218;-78
2021/03/26 06:12:19;;;;;;;35.37;16.90;;;7.30;99.90;;;;;;5081636;28;20205;-78
2021/03/26 06:15:24;;;;;;;39.28;20.35;;;7.40;99.90;;;;;;5096047;28;20445;-77
2021/03/26 06:18:26;;;;;;;33.97;16.77;;;7.50;99.90;;;;;;5086545;28;20638;-78
2021/03/26 06:21:12;;;;;;;33.50;16.90;;;7.60;99.90;;;;;;5076954;28;20517;-79
2021/03/26 06:24:06;;;;;;;32.27;16.43;;;7.70;99.90;;;;;;5091426;28;20668;-78
2021/03/26 06:27:06;;;;;;;29.60;15.00;;;7.80;99.90;;;;;;5093892;28;20219;-80
2021/03/26 06:30:02;;;;;;;30.27;14.80;;;7.90;99.90;;;;;;5084463;28;20583;-78
2021/03/26 06:33:03;;;;;;;35.10;15.37;;;8.00;99.90;;;;;;5062178;28;20397;-76
2021/03/26 06:35:55;;;;;;;27.73;14.20;;;8.00;99.90;;;;;;5079881;28;20258;-79
2021/03/26 06:38:45;;;;;;;28.30;14.47;;;8.00;99.90;;;;;;5081198;28;20214;-78
2021/03/26 06:41:22;;;;;;;33.33;13.60;;;8.10;99.90;;;;;;5085432;28;20561;-78
2021/03/26 06:44:24;;;;;;;30.83;14.87;;;8.20;99.90;;;;;;5078289;28;20288;-78
2021/03/26 06:46:55;;;;;;;28.40;13.90;;;8.40;99.90;;;;;;5090471;28;20291;-77
2021/03/26 06:49:37;;;;;;;30.67;14.90;;;8.60;99.90;;;;;;5086446;28;20228;-76
2021/03/26 06:52:15;;;;;;;30.07;14.20;;;8.70;99.90;;;;;;5096683;28;20200;-77
2021/03/26 06:55:00;;;;;;;36.17;15.10;;;8.70;99.90;;;;;;5088579;28;20213;-77
2021/03/26 06:57:57;;;;;;;30.27;14.67;;;8.90;99.90;;;;;;5074262;28;20219;-78
2021/03/26 07:00:48;;;;;;;28.40;12.97;;;9.00;99.90;;;;;;5082609;28;20235;-77
2021/03/26 07:03:43;;;;;;;24.07;12.33;;;9.20;99.90;;;;;;5081210;28;20622;-78
2021/03/26 07:06:54;;;;;;;24.43;13.20;;;9.20;99.90;;;;;;5073685;28;20247;-77
2021/03/26 07:09:45;;;;;;;24.40;12.20;;;9.30;99.90;;;;;;5074823;28;20203;-77
2021/03/26 07:12:26;;;;;;;22.43;11.93;;;9.40;99.90;;;;;;5074946;28;20202;-78
2021/03/26 07:15:01;;;;;;;22.97;11.80;;;9.60;99.90;;;;;;5084784;28;20746;-77
2021/03/26 07:17:47;;;;;;;22.83;12.37;;;9.80;99.90;;;;;;5080847;28;20212;-78
2021/03/26 07:20:45;;;;;;;26.30;11.97;;;10.00;99.90;;;;;;5091219;28;20295;-76
2021/03/26 07:23:34;;;;;;;22.80;12.00;;;10.10;99.90;;;;;;5087368;28;20213;-78
2021/03/26 07:26:35;;;;;;;25.13;11.57;;;10.40;99.90;;;;;;5083787;28;20651;-77
2021/03/26 07:29:31;;;;;;;22.53;11.00;;;10.50;99.90;;;;;;5079434;28;20204;-76
2021/03/26 07:32:18;;;;;;;20.23;10.43;;;10.50;99.90;;;;;;5081152;28;20206;-76
2021/03/26 07:35:05;;;;;;;29.07;10.30;;;10.50;99.90;;;;;;5079290;28;20303;-78
2021/03/26 07:37:38;;;;;;;18.67;10.03;;;10.60;99.90;;;;;;5082813;28;20230;-77
2021/03/26 07:40:32;;;;;;;18.00;10.00;;;10.60;99.90;;;;;;5075022;28;20285;-77
2021/03/26 07:43:17;;;;;;;20.20;9.77;;;10.80;99.90;;;;;;5080021;28;20203;-77
2021/03/26 07:46:04;;;;;;;23.77;10.20;;;10.90;99.90;;;;;;5077803;28;20208;-77
2021/03/26 07:49:06;;;;;;;16.47;8.97;;;11.00;99.90;;;;;;5068426;28;20300;-76
2021/03/26 07:51:36;;;;;;;18.03;9.57;;;11.20;99.90;;;;;;5078437;28;20198;-77
2021/03/26 07:54:24;;;;;;;23.23;9.57;;;11.30;99.90;;;;;;5078116;28;20229;-78
2021/03/26 07:57:17;;;;;;;18.93;9.10;;;11.40;99.90;;;;;;5083848;28;20189;-77
2021/03/26 08:00:19;;;;;;;17.07;8.67;;;11.60;99.90;;;;;;5072607;28;20207;-76
2021/03/26 08:03:03;;;;;;;20.40;9.43;;;11.80;99.90;;;;;;5075770;28;20221;-77
2021/03/26 08:05:36;;;;;;;21.10;9.17;;;12.00;99.90;;;;;;5074162;28;20203;-77
2021/03/26 08:08:33;;;;;;;17.57;8.80;;;12.20;99.90;;;;;;5069343;28;20225;-79
2021/03/26 08:11:10;;;;;;;16.17;8.60;;;12.40;99.90;;;;;;5080170;28;20285;-77
2021/03/26 08:14:19;;;;;;;16.43;8.63;;;12.60;99.90;;;;;;5083517;28;20195;-78
2021/03/26 08:17:02;;;;;;;16.67;7.93;;;12.80;99.90;;;;;;5084644;28;20282;-78
2021/03/26 08:19:41;;;;;;;20.80;8.63;;;12.90;99.90;;;;;;5074182;28;20188;-80
2021/03/26 08:22:18;;;;;;;17.13;8.20;;;13.20;99.90;;;;;;5077660;28;20219;-77
2021/03/26 08:25:14;;;;;;;17.93;8.40;;;13.30;99.90;;;;;;5080511;28;20270;-77
2021/03/26 08:27:45;;;;;;;18.80;8.57;;;13.50;99.90;;;;;;5066374;28;20198;-78
2021/03/26 08:30:40;;;;;;;17.53;7.77;;;13.60;99.90;;;;;;5090995;28;20638;-77
2021/03/26 08:33:44;;;;;;;17.13;7.57;;;13.70;99.90;;;;;;5080832;28;20238;-79
2021/03/26 08:36:20;;;;;;;19.03;7.37;;;13.80;99.90;;;;;;5081635;28;20670;-77
2021/03/26 08:39:10;;;;;;;12.50;7.23;;;13.80;99.90;;;;;;5080559;28;20206;-77
2021/03/26 08:41:40;;;;;;;14.33;7.17;;;13.80;99.90;;;;;;5073594;28;20211;-78
2021/03/26 08:44:13;;;;;;;12.93;6.57;;;13.90;99.90;;;;;;5083253;28;20256;-77
2021/03/26 08:46:45;;;;;;;17.33;7.60;;;14.00;99.90;;;;;;5088610;28;20255;-77
2021/03/26 08:49:24;;;;;;;12.60;7.83;;;14.10;99.90;;;;;;5092434;28;20210;-77
2021/03/26 08:52:15;;;;;;;17.50;7.30;;;14.20;99.90;;;;;;5084257;28;20190;-78
2021/03/26 08:55:13;;;;;;;15.73;6.87;;;14.30;99.90;;;;;;5077575;28;20663;-77
2021/03/26 08:57:54;;;;;;;18.30;6.93;;;14.60;99.90;;;;;;5070406;28;20223;-78
2021/03/26 09:00:32;;;;;;;14.70;7.10;;;14.70;99.90;;;;;;5085652;28;20233;-77
2021/03/26 09:03:18;;;;;;;15.80;6.17;;;15.00;99.90;;;;;;5079415;28;20199;-77
2021/03/26 09:05:56;;;;;;;14.47;6.33;;;15.00;99.90;;;;;;5083362;28;20552;-78
2021/03/26 09:09:13;;;;;;;10.37;5.60;;;15.10;99.90;;;;;;5076738;28;20229;-79
2021/03/26 09:12:00;;;;;;;13.00;6.07;;;15.10;99.90;;;;;;4999714;28;20231;-78
2021/03/26 09:15:01;;;;;;;10.97;5.57;;;15.10;99.90;;;;;;5075977;28;20637;-76
2021/03/26 09:17:32;;;;;;;11.53;5.33;;;15.30;99.90;;;;;;5077968;28;20198;-78
2021/03/26 09:20:04;;;;;;;11.77;5.30;;;15.60;99.90;;;;;;5079255;28;20195;-78
2021/03/26 09:22:58;;;;;;;14.10;5.40;;;15.80;99.90;;;;;;5079487;28;20256;-78
2021/03/26 09:25:41;;;;;;;12.20;5.13;;;15.90;99.90;;;;;;5079924;28;20196;-78
2021/03/26 09:28:14;;;;;;;9.20;4.70;;;16.00;99.90;;;;;;5074999;28;20293;-79
2021/03/26 09:30:43;;;;;;;10.20;4.77;;;15.80;99.90;;;;;;5072226;28;20219;-78
2021/03/26 09:33:14;;;;;;;10.73;5.30;;;15.70;99.90;;;;;;5073981;28;20245;-78
2021/03/26 09:35:45;;;;;;;12.10;4.80;;;15.70;99.90;;;;;;5082022;28;20693;-79
2021/03/26 09:38:24;;;;;;;10.70;4.63;;;15.60;99.90;;;;;;5080088;28;20213;-79
2021/03/26 09:41:04;;;;;;;11.67;4.40;;;15.80;99.90;;;;;;5079064;28;20285;-78
2021/03/26 09:43:34;;;;;;;8.77;4.10;;;15.60;99.90;;;;;;5073387;28;20538;-78
2021/03/26 09:46:09;;;;;;;12.57;4.67;;;15.50;99.90;;;;;;5076375;28;20282;-77
2021/03/26 09:48:59;;;;;;;13.03;5.03;;;15.60;99.90;;;;;;5078300;28;20207;-77
2021/03/26 09:51:38;;;;;;;7.83;3.93;;;15.80;99.90;;;;;;5078990;28;20230;-79
2021/03/26 09:54:28;;;;;;;7.67;3.57;;;15.90;99.90;;;;;;5078621;28;20667;-77
2021/03/26 09:57:20;;;;;;;9.37;4.03;;;15.90;99.90;;;;;;5078055;28;20649;-79
2021/03/26 10:00:05;;;;;;;7.60;3.80;;;16.10;99.90;;;;;;5084547;28;20476;-78
2021/03/26 10:02:36;;;;;;;12.17;4.20;;;16.30;99.90;;;;;;5085637;28;20278;-78
2021/03/26 10:05:17;;;;;;;9.47;4.57;;;16.50;99.90;;;;;;5089203;28;20692;-76
2021/03/26 10:07:51;;;;;;;10.00;4.20;;;16.90;99.90;;;;;;5083729;28;20644;-76
2021/03/26 10:13:15;;;;;;;8.10;4.60;;;17.60;99.90;;;;;;5094810;28;20225;-79
2021/03/26 10:15:46;;;;;;;9.23;4.40;;;17.80;99.90;;;;;;5101432;28;20215;-76
2021/03/26 10:18:17;;;;;;;11.37;5.27;;;18.10;99.90;;;;;;5100795;28;20187;-76
2021/03/26 10:20:51;;;;;;;18.80;5.20;;;18.30;99.90;;;;;;5099434;28;20199;-78
2021/03/26 10:23:30;;;;;;;13.77;4.97;;;18.70;99.90;;;;;;5098422;28;20196;-78
2021/03/26 10:26:07;;;;;;;9.60;4.33;;;18.30;99.90;;;;;;5099708;28;20192;-78
2021/03/26 10:29:12;;;;;;;6.73;4.53;;;18.30;99.90;;;;;;5095326;28;20194;-80
2021/03/26 10:31:42;;;;;;;10.63;4.50;;;18.50;99.90;;;;;;5086063;28;20195;-78
2021/03/26 10:34:11;;;;;;;6.33;3.33;;;18.60;99.90;;;;;;5084459;28;20227;-79
2021/03/26 10:36:47;;;;;;;9.53;3.70;;;18.60;99.90;;;;;;5077448;28;20658;-76
2021/03/26 10:39:16;;;;;;;12.83;3.27;;;19.00;99.90;;;;;;5078597;28;20287;-76
2021/03/26 10:41:54;;;;;;;4.87;2.77;;;19.20;99.90;;;;;;5070165;28;20195;-77
2021/03/26 10:44:28;;;;;;;9.67;2.90;;;19.50;99.90;;;;;;5084805;28;20218;-77
2021/03/26 10:47:06;;;;;;;8.77;2.60;;;19.60;99.90;;;;;;5084284;28;20184;-77
2021/03/26 10:49:38;;;;;;;5.50;2.40;;;19.60;99.90;;;;;;5084392;28;20195;-76
2021/03/26 10:52:10;;;;;;;5.20;2.63;;;19.80;99.90;;;;;;5084637;28;20258;-76
2021/03/26 10:54:46;;;;;;;9.23;2.57;;;18.90;99.90;;;;;;5077833;28;20305;-76
2021/03/26 10:57:36;;;;;;;7.50;2.80;;;18.30;99.90;;;;;;5083970;28;20195;-75
2021/03/26 11:00:08;;;;;;;8.00;2.67;;;18.50;99.90;;;;;;5081390;28;20671;-76
2021/03/26 11:02:53;;;;;;;11.60;3.23;;;18.20;99.90;;;;;;5087134;28;20226;-76
2021/03/26 11:05:31;;;;;;;9.60;2.80;;;18.20;99.90;;;;;;5080274;28;20285;-76
2021/03/26 11:08:38;;;;;;;5.90;2.80;;;17.70;99.90;;;;;;5086674;28;20281;-77
2021/03/26 11:11:21;;;;;;;8.20;2.63;;;17.20;99.90;;;;;;5075739;28;20235;-76
2021/03/26 11:14:25;;;;;;;7.27;2.60;;;17.00;99.90;;;;;;5080669;28;20191;-75
2021/03/26 11:17:02;;;;;;;4.47;2.70;;;16.70;99.90;;;;;;5090174;28;20187;-76
2021/03/26 11:19:34;;;;;;;7.77;2.80;;;16.70;99.90;;;;;;5083216;28;20197;-76
2021/03/26 11:22:07;;;;;;;8.47;2.70;;;17.10;99.90;;;;;;5080252;28;20206;-77
2021/03/26 11:24:42;;;;;;;6.40;2.60;;;17.50;99.90;;;;;;5080092;28;20290;-78
2021/03/26 11:27:15;;;;;;;4.53;2.43;;;17.50;99.90;;;;;;5081910;28;20283;-77
2021/03/26 11:29:47;;;;;;;6.10;3.00;;;17.30;99.90;;;;;;5086129;28;20213;-76
2021/03/26 11:32:22;;;;;;;5.63;2.90;;;17.00;99.90;;;;;;5079591;28;20212;-77
2021/03/26 11:35:00;;;;;;;6.47;2.30;;;17.10;99.90;;;;;;5081314;28;20317;-77
2021/03/26 11:37:35;;;;;;;6.77;1.97;;;17.10;99.90;;;;;;5079587;28;20203;-77
2021/03/26 11:40:07;;;;;;;6.53;2.10;;;17.00;99.90;;;;;;5082173;28;20192;-76
2021/03/26 11:42:47;;;;;;;3.90;1.90;;;16.80;99.90;;;;;;5083278;28;20191;-77
2021/03/26 11:45:28;;;;;;;4.13;1.50;;;17.30;99.90;;;;;;5081587;28;20199;-78
2021/03/26 11:48:09;;;;;;;4.87;1.30;;;17.20;99.90;;;;;;5074143;28;20195;-75
2021/03/26 11:50:39;;;;;;;3.30;1.20;;;17.30;99.90;;;;;;5079364;28;20187;-75
2021/03/26 11:53:28;;;;;;;2.50;1.20;;;17.40;99.90;;;;;;5083332;28;20206;-77
2021/03/26 11:56:31;;;;;;;2.60;1.20;;;17.20;99.90;;;;;;5069096;28;20219;-77
2021/03/26 11:59:39;;;;;;;4.57;0.83;;;17.20;99.90;;;;;;5078209;28;20217;-78
2021/03/26 12:02:18;;;;;;;1.40;0.90;;;17.10;99.90;;;;;;5063189;28;20338;-76
2021/03/26 12:04:49;;;;;;;6.13;1.20;;;16.80;99.90;;;;;;5083291;28;20203;-77
2021/03/26 12:07:22;;;;;;;4.73;0.90;;;16.60;99.90;;;;;;5083844;28;20243;-76
2021/03/26 12:09:56;;;;;;;2.17;0.90;;;16.40;99.90;;;;;;5081587;28;20756;-76
2021/03/26 12:12:30;;;;;;;4.07;1.20;;;16.30;99.90;;;;;;5077732;28;20282;-76
2021/03/26 12:15:05;;;;;;;5.80;1.37;;;16.30;99.90;;;;;;5078820;28;20216;-76
2021/03/26 12:17:36;;;;;;;6.63;1.73;;;16.40;99.90;;;;;;5080135;28;20282;-76
2021/03/26 12:20:10;;;;;;;5.93;1.70;;;16.40;99.90;;;;;;5077626;28;20560;-78
2021/03/26 12:22:48;;;;;;;5.03;1.80;;;16.40;99.90;;;;;;5084814;28;20210;-78
2021/03/26 12:25:23;;;;;;;4.73;1.90;;;16.20;99.90;;;;;;5074053;28;20240;-75
2021/03/26 12:27:51;;;;;;;8.30;2.40;;;16.20;99.90;;;;;;5074521;28;20187;-76
2021/03/26 12:30:22;;;;;;;3.80;1.90;;;16.30;99.90;;;;;;5072542;28;20260;-75
2021/03/26 12:32:59;;;;;;;4.83;1.60;;;16.50;99.90;;;;;;5079331;28;20215;-76
2021/03/26 12:35:29;;;;;;;7.43;1.70;;;16.80;99.90;;;;;;5079089;28;20396;-75
2021/03/26 12:38:12;;;;;;;6.03;1.67;;;17.00;99.90;;;;;;5074348;28;20684;-76
2021/03/26 12:41:03;;;;;;;4.73;2.13;;;17.60;99.90;;;;;;5075414;28;20280;-77
2021/03/26 12:43:37;;;;;;;5.80;1.73;;;17.50;99.90;;;;;;5082267;28;20210;-77
2021/03/26 12:46:19;;;;;;;7.03;1.70;;;17.60;99.90;;;;;;5074189;28;20653;-79
2021/03/26 12:48:50;;;;;;;3.10;1.70;;;17.10;99.90;;;;;;5071947;28;20753;-78
2021/03/26 12:51:26;;;;;;;8.23;1.87;;;17.00;99.90;;;;;;5081010;28;20318;-77
2021/03/26 12:53:58;;;;;;;4.43;1.67;;;16.90;99.90;;;;;;5069801;28;20233;-79
2021/03/26 12:56:33;;;;;;;3.83;1.63;;;17.20;99.90;;;;;;5076775;28;20285;-77
2021/03/26 12:59:16;;;;;;;5.50;1.70;;;17.40;99.90;;;;;;5086040;28;20198;-78
2021/03/26 13:01:48;;;;;;;7.33;1.90;;;17.20;99.90;;;;;;5083438;28;20198;-78
2021/03/26 13:04:34;;;;;;;7.63;1.97;;;17.40;99.90;;;;;;5092742;28;20598;-79
2021/03/26 13:07:05;;;;;;;3.00;1.60;;;17.20;99.90;;;;;;5081073;28;20199;-80
2021/03/26 13:09:38;;;;;;;7.87;2.10;;;17.10;99.90;;;;;;5082812;28;20708;-77
2021/03/26 13:12:10;;;;;;;7.03;1.80;;;17.00;99.90;;;;;;5068659;28;21014;-78
2021/03/26 13:14:46;;;;;;;4.23;1.97;;;16.70;99.90;;;;;;5075721;28;20253;-77
2021/03/26 13:17:18;;;;;;;6.83;1.83;;;16.60;99.90;;;;;;5080114;28;20203;-77
2021/03/26 13:19:44;;;;;;;5.17;2.40;;;16.90;99.90;;;;;;5083603;28;20240;-79
2021/03/26 13:22:32;;;;;;;6.00;2.33;;;17.10;99.90;;;;;;5071954;28;20938;-77
2021/03/26 13:25:11;;;;;;;9.20;2.33;;;17.30;99.90;;;;;;5082055;28;20199;-77
2021/03/26 13:27:42;;;;;;;3.53;2.03;;;17.60;99.90;;;;;;5087106;28;20687;-78
2021/03/26 13:30:22;;;;;;;5.33;2.30;;;17.70;99.90;;;;;;5091281;28;20244;-79